Asukamaru — JG5536 — position and weather

sailwx.info

Track history (hours):
 
Tides and Currents Weather Stations Pressure Air Temp Water Temp Dewpoint Dewpoint Depression Visibility Wind Speed Wind Dir Waves Ship Positions

Asukamaru

Last reported at 2016-Aug-26 04:33 UTC. Time now 2016-Aug-26 04:55 UTC.
Position N 35°29' E 139°39'.

Length 31 m; draft 3 m.

Type: Tug. MMSI: 431001145.

Date/timePositionNaut miles runAvg speedWind from/ knotsBaromVisibWave heightAir tempDewpointWater temp
2016-Aug-26 04:33N 35°29' E 139°39'0 0.0
2016-Aug-26 03:34N 35°29' E 139°39'0 0.0
2016-Aug-26 02:34N 35°29' E 139°39'0 0.0
2016-Aug-26 01:33N 35°29' E 139°39'0 0.0
2016-Aug-26 00:33N 35°29' E 139°39'7 6.8
2016-Aug-25 23:34N 35°30' E 139°47'7 7.4
2016-Aug-25 22:33N 35°38' E 139°46'1 0.6
2016-Aug-25 21:34N 35°38' E 139°45'0 0.0
2016-Aug-25 20:34N 35°38' E 139°45'0 0.0
2016-Aug-25 19:33N 35°38' E 139°45'0 0.0
2016-Aug-25 18:34N 35°38' E 139°45'0 0.0
2016-Aug-25 17:33N 35°38' E 139°45'0 0.0
2016-Aug-25 16:33N 35°38' E 139°45'0 0.0
2016-Aug-25 15:34N 35°38' E 139°45'0 0.0
2016-Aug-25 14:34N 35°38' E 139°45'0 0.0
2016-Aug-25 13:33N 35°38' E 139°45'0 0.0
2016-Aug-25 12:34N 35°38' E 139°45'0 0.0
2016-Aug-25 11:33N 35°38' E 139°45'0 0.0
2016-Aug-25 10:34N 35°38' E 139°45'0 0.0
2016-Aug-25 09:33N 35°38' E 139°45'0 0.2
2016-Aug-25 08:33N 35°38' E 139°46'0 0.2
2016-Aug-25 07:33N 35°38' E 139°45'1 1.2
2016-Aug-25 06:34N 35°39' E 139°47'1 0.6
2016-Aug-25 04:34N 35°38' E 139°45'0 0.0
2016-Aug-25 03:33N 35°38' E 139°45'0 0.0
2016-Aug-25 02:33N 35°38' E 139°45'0 0.0
2016-Aug-25 01:34N 35°38' E 139°45'0 0.0
2016-Aug-25 00:33N 35°38' E 139°45'0 0.0
2016-Aug-24 23:34N 35°38' E 139°45'1 1.3
2016-Aug-24 22:33N 35°37' E 139°46'3 3.1
2016-Aug-24 21:33N 35°35' E 139°48'2 1.9
2016-Aug-24 20:34N 35°36' E 139°46'0 0.1
2016-Aug-24 19:33N 35°36' E 139°47'3 2.6
2016-Aug-24 18:33N 35°38' E 139°45'0 0.0
2016-Aug-24 17:33N 35°38' E 139°45'0 0.0
2016-Aug-24 16:33N 35°38' E 139°45'0 0.0
2016-Aug-24 15:33N 35°38' E 139°45'0 0.0
2016-Aug-24 14:33N 35°38' E 139°45'0 0.0
2016-Aug-24 13:34N 35°38' E 139°45'0 0.0
2016-Aug-24 12:34N 35°38' E 139°45'0 0.0
2016-Aug-24 11:33N 35°38' E 139°45'0 0.0
2016-Aug-24 10:33N 35°38' E 139°45'0 0.0
2016-Aug-24 09:34N 35°38' E 139°45'0 0.0
2016-Aug-24 08:33N 35°38' E 139°45'0 0.0
2016-Aug-24 07:34N 35°38' E 139°45'0 0.0
2016-Aug-24 06:33N 35°38' E 139°45'0 0.0
2016-Aug-24 04:34N 35°38' E 139°45'1 1.5
2016-Aug-24 03:34N 35°37' E 139°46'1 1.5
2016-Aug-24 02:33N 35°38' E 139°45'0 0.0
2016-Aug-24 01:34N 35°38' E 139°45'0 0.0
2016-Aug-24 00:33N 35°38' E 139°45'0 0.0
2016-Aug-23 23:33N 35°38' E 139°45'0 0.0
2016-Aug-23 22:34N 35°38' E 139°45'0 0.0
2016-Aug-23 21:34N 35°38' E 139°45'0 0.0
2016-Aug-23 20:34N 35°38' E 139°45'0 0.0
2016-Aug-23 19:34N 35°38' E 139°45'0 0.0
2016-Aug-23 18:33N 35°38' E 139°45'0 0.0
2016-Aug-23 17:33N 35°38' E 139°45'0 0.0
2016-Aug-23 16:33N 35°38' E 139°45'0 0.0
2016-Aug-23 15:33N 35°38' E 139°45'0 0.0
2016-Aug-23 14:34N 35°38' E 139°45'0 0.0
2016-Aug-23 13:34N 35°38' E 139°45'0 0.0
2016-Aug-23 12:34N 35°38' E 139°45'0 0.0
2016-Aug-23 11:34N 35°38' E 139°45'0 0.0
2016-Aug-23 10:33N 35°38' E 139°45'0 0.3
2016-Aug-23 09:33N 35°38' E 139°46'2 1.5
2016-Aug-23 08:34N 35°37' E 139°47'2 1.9
2016-Aug-23 07:34N 35°38' E 139°45'0 0.0
2016-Aug-23 06:34N 35°38' E 139°45'0 0.0
2016-Aug-23 05:34N 35°38' E 139°45'0 0.0
2016-Aug-23 04:33N 35°38' E 139°45'0 0.0
2016-Aug-23 03:33N 35°38' E 139°45'0 0.0
2016-Aug-23 02:33N 35°38' E 139°45'0 0.0
2016-Aug-23 01:33N 35°38' E 139°45'0 0.0
2016-Aug-23 00:33N 35°38' E 139°45'0 0.0
2016-Aug-22 23:33N 35°38' E 139°45'3 3.0
2016-Aug-22 22:34N 35°35' E 139°47'1 0.6
2016-Aug-22 21:33N 35°36' E 139°47'3 2.8
2016-Aug-22 20:33N 35°38' E 139°45'0 0.0
2016-Aug-22 19:32N 35°38' E 139°45'0 0.0
2016-Aug-22 18:33N 35°38' E 139°45'0 0.0
2016-Aug-22 17:33N 35°38' E 139°45'0 0.0
2016-Aug-22 16:33N 35°38' E 139°45'0 0.0
2016-Aug-22 15:33N 35°38' E 139°45'0 0.0
2016-Aug-22 14:34N 35°38' E 139°45'0 0.0
2016-Aug-22 13:33N 35°38' E 139°45'0 0.0
2016-Aug-22 12:33N 35°38' E 139°45'0 0.0
2016-Aug-22 11:34N 35°38' E 139°45'0 0.0
2016-Aug-22 10:34N 35°38' E 139°45'0 0.0
2016-Aug-22 09:34N 35°38' E 139°45'0 0.0
2016-Aug-22 08:33N 35°38' E 139°45'0 0.0
2016-Aug-22 07:33N 35°38' E 139°45'0 0.0
2016-Aug-22 06:33N 35°38' E 139°45'0 0.0
2016-Aug-22 05:34N 35°38' E 139°45'0 0.0
2016-Aug-22 04:33N 35°38' E 139°45'0 0.0
2016-Aug-22 03:33N 35°38' E 139°45'0 0.0
2016-Aug-22 02:33N 35°38' E 139°45'0 0.0
2016-Aug-22 01:34N 35°38' E 139°45'0 0.0
2016-Aug-22 00:34N 35°38' E 139°45'0 0.0
2016-Aug-21 23:33N 35°38' E 139°45'0 0.0
2016-Aug-21 22:34N 35°38' E 139°45'0 0.0
2016-Aug-21 21:33N 35°38' E 139°45'0 0.0
2016-Aug-21 20:33N 35°38' E 139°45'0 0.0
2016-Aug-21 19:33N 35°38' E 139°45'0 0.0
2016-Aug-21 18:34N 35°38' E 139°45'0 0.0
2016-Aug-21 17:33N 35°38' E 139°45'0 0.0
2016-Aug-21 16:34N 35°38' E 139°45'0 0.0
2016-Aug-21 15:33N 35°38' E 139°45'0 0.0
2016-Aug-21 14:33N 35°38' E 139°45'0 0.0
2016-Aug-21 13:33N 35°38' E 139°45'0 0.0
2016-Aug-21 12:33N 35°38' E 139°45'0 0.0
2016-Aug-21 11:33N 35°38' E 139°45'0 0.0
2016-Aug-21 10:33N 35°38' E 139°45'0 0.0
2016-Aug-21 09:33N 35°38' E 139°45'0 0.0
2016-Aug-21 08:33N 35°38' E 139°45'0 0.0
2016-Aug-21 07:33N 35°38' E 139°45'0 0.0
2016-Aug-21 06:34N 35°38' E 139°45'0 0.0
2016-Aug-21 05:33N 35°38' E 139°45'0 0.0
2016-Aug-21 04:33N 35°38' E 139°45'0 0.0
2016-Aug-21 03:34N 35°38' E 139°45'0 0.0
2016-Aug-21 02:34N 35°38' E 139°45'0 0.0
2016-Aug-21 01:34N 35°38' E 139°45'0 0.0
2016-Aug-21 00:33N 35°38' E 139°45'0 0.0
2016-Aug-20 23:33N 35°38' E 139°45'0 0.0
2016-Aug-20 22:33N 35°38' E 139°45'0 0.0
2016-Aug-20 21:34N 35°38' E 139°45'0 0.0
2016-Aug-20 20:33N 35°38' E 139°45'0 0.0
2016-Aug-20 19:33N 35°38' E 139°45'0 0.0
2016-Aug-20 18:34N 35°38' E 139°45'0 0.1
2016-Aug-20 17:33N 35°38' E 139°46'0 0.1
2016-Aug-20 16:34N 35°38' E 139°45'0 0.0
2016-Aug-20 15:33N 35°38' E 139°45'0 0.0
2016-Aug-20 14:34N 35°38' E 139°45'0 0.0
2016-Aug-20 13:34N 35°38' E 139°45'0 0.0
2016-Aug-20 12:33N 35°38' E 139°45'0 0.0
2016-Aug-20 11:33N 35°38' E 139°45'0 0.0
2016-Aug-20 10:33N 35°38' E 139°45'0 0.0
2016-Aug-20 09:33N 35°38' E 139°45'0 0.0
2016-Aug-20 08:34N 35°38' E 139°45'0 0.0
2016-Aug-20 07:33N 35°38' E 139°45'0 0.0
2016-Aug-20 06:33N 35°38' E 139°45'0 0.0
2016-Aug-20 05:33N 35°38' E 139°45'0 0.0
2016-Aug-20 04:33N 35°38' E 139°45'0 0.0
2016-Aug-20 03:33N 35°38' E 139°45'0 0.0
2016-Aug-20 02:33N 35°38' E 139°45'0 0.0
2016-Aug-20 01:33N 35°38' E 139°45'0 0.0
2016-Aug-20 00:33N 35°38' E 139°45'0 0.0
2016-Aug-19 23:33N 35°38' E 139°45'4 3.7
2016-Aug-19 22:33N 35°35' E 139°48'4 3.7
2016-Aug-19 21:33N 35°38' E 139°45'0 0.0
2016-Aug-19 20:33N 35°38' E 139°45'0 0.0
2016-Aug-19 19:34N 35°38' E 139°45'0 0.0
2016-Aug-19 18:33N 35°38' E 139°45'0 0.0
2016-Aug-19 17:33N 35°38' E 139°45'0 0.0
2016-Aug-19 16:33N 35°38' E 139°45'0 0.0
2016-Aug-19 15:34N 35°38' E 139°45'0 0.0
2016-Aug-19 14:34N 35°38' E 139°45'0 0.0
2016-Aug-19 13:34N 35°38' E 139°45'0 0.0
2016-Aug-19 12:33N 35°38' E 139°45'0 0.0
2016-Aug-19 11:33N 35°38' E 139°45'0 0.0
2016-Aug-19 10:34N 35°38' E 139°45'0 0.0
2016-Aug-19 09:34N 35°38' E 139°45'0 0.0
2016-Aug-19 08:34N 35°38' E 139°45'0 0.0
2016-Aug-19 07:33N 35°38' E 139°45'0 0.0
2016-Aug-19 06:34N 35°38' E 139°45'0 0.0
2016-Aug-19 05:34N 35°38' E 139°45'0 0.0
2016-Aug-19 04:33N 35°38' E 139°45'0 0.0
2016-Aug-19 03:33N 35°38' E 139°45'0 0.0
2016-Aug-19 02:33N 35°38' E 139°45'0 0.0
2016-Aug-19 01:34N 35°38' E 139°45'0 0.0
2016-Aug-19 00:33N 35°38' E 139°45'0 0.0
2016-Aug-18 23:33N 35°38' E 139°45'0 0.0
2016-Aug-18 22:33N 35°38' E 139°45'0 0.0
2016-Aug-18 21:34N 35°38' E 139°45'0 0.0
2016-Aug-18 20:34N 35°38' E 139°45'0 0.0
2016-Aug-18 19:34N 35°38' E 139°45'0 0.0
2016-Aug-18 18:33N 35°38' E 139°45'0 0.0
2016-Aug-18 17:34N 35°38' E 139°45'0 0.0
2016-Aug-18 16:34N 35°38' E 139°45'0 0.0
2016-Aug-18 15:33N 35°38' E 139°45'0 0.0
2016-Aug-18 14:33N 35°38' E 139°45'1 1.1
2016-Aug-18 13:34N 35°37' E 139°46'1 1.1
2016-Aug-18 12:33N 35°38' E 139°45'2 2.2
2016-Aug-18 11:33N 35°36' E 139°46'3 3.0
2016-Aug-18 10:34N 35°34' E 139°49'3 3.4
2016-Aug-18 09:33N 35°37' E 139°46'1 1.2
2016-Aug-18 08:34N 35°36' E 139°48'2 1.6
2016-Aug-18 07:33N 35°35' E 139°49'4 4.4
2016-Aug-18 06:33N 35°38' E 139°45'0 0.0
2016-Aug-18 05:33N 35°38' E 139°45'0 0.0
2016-Aug-18 04:33N 35°38' E 139°45'0 0.0
2016-Aug-18 03:33N 35°38' E 139°45'0 0.0
2016-Aug-18 02:34N 35°38' E 139°45'0 0.0
2016-Aug-18 01:33N 35°38' E 139°45'0 0.0
2016-Aug-18 00:33N 35°38' E 139°45'0 0.0
2016-Aug-17 23:34N 35°38' E 139°45'3 2.8
2016-Aug-17 22:33N 35°36' E 139°48'2 2.2
2016-Aug-17 21:33N 35°38' E 139°46'1 0.7
2016-Aug-17 20:33N 35°38' E 139°45'0 0.0
2016-Aug-17 19:33N 35°38' E 139°45'0 0.0
2016-Aug-17 18:34N 35°38' E 139°45'0 0.0
2016-Aug-17 17:34N 35°38' E 139°45'0 0.0
2016-Aug-17 16:33N 35°38' E 139°45'0 0.0
2016-Aug-17 15:33N 35°38' E 139°45'0 0.0
2016-Aug-17 14:33N 35°38' E 139°45'0 0.0
2016-Aug-17 13:34N 35°38' E 139°45'0 0.0
2016-Aug-17 12:33N 35°38' E 139°45'0 0.0
2016-Aug-17 11:33N 35°38' E 139°45'0 0.0
2016-Aug-17 10:33N 35°38' E 139°45'3 3.0
2016-Aug-17 09:34N 35°36' E 139°47'0 0.1
2016-Aug-17 08:34N 35°35' E 139°47'2 2.1
2016-Aug-17 07:34N 35°37' E 139°46'1 1.1
2016-Aug-17 06:33N 35°38' E 139°45'0 0.0
2016-Aug-17 05:29N 35°38' E 139°45'0 0.0
2016-Aug-17 04:10N 35°38' E 139°45'0 0.0
2016-Aug-17 03:33N 35°38' E 139°45'0 0.0
2016-Aug-17 02:33N 35°38' E 139°45'0 0.0
2016-Aug-17 01:33N 35°38' E 139°45'0 0.0
2016-Aug-17 00:33N 35°38' E 139°45'2 2.1
2016-Aug-16 23:34N 35°36' E 139°46'1 1.4
2016-Aug-16 22:33N 35°35' E 139°47'5 4.8
2016-Aug-16 21:34N 35°34' E 139°53'7 7.5
2016-Aug-16 20:33N 35°38' E 139°45'0 0.0
2016-Aug-16 19:34N 35°38' E 139°45'0 0.0
2016-Aug-16 18:34N 35°38' E 139°45'0 0.0
2016-Aug-16 17:33N 35°38' E 139°45'0 0.0
2016-Aug-16 16:34N 35°38' E 139°45'0 0.0
2016-Aug-16 15:33N 35°38' E 139°45'0 0.0
2016-Aug-16 14:33N 35°38' E 139°45'0 0.0
2016-Aug-16 13:34N 35°38' E 139°45'0 0.0
2016-Aug-16 12:33N 35°38' E 139°45'0 0.0
2016-Aug-16 11:33N 35°38' E 139°45'0 0.0
2016-Aug-16 10:33N 35°38' E 139°45'0 0.0
2016-Aug-16 09:33N 35°38' E 139°45'0 0.0
2016-Aug-16 08:34N 35°38' E 139°45'0 0.0
2016-Aug-16 07:33N 35°38' E 139°45'0 0.0
2016-Aug-16 04:34N 35°38' E 139°45'  
Track history (hours):
 
Tides and Currents Weather Stations Pressure Air Temp Water Temp Dewpoint Dewpoint Depression Visibility Wind Speed Wind Dir Waves Ship Positions

Asukamaru

Last reported at 2016-Aug-26 04:33 UTC. Time now 2016-Aug-26 04:55 UTC.
Position N 35°29' E 139°39'.

Length 31 m; draft 3 m.

Type: Tug. MMSI: 431001145.

Date/timePositionNaut miles runAvg speedWind from/ knotsBaromVisibWave heightAir tempDewpointWater temp
2016-Aug-26 04:33N 35°29' E 139°39'0 0.0
2016-Aug-26 03:34N 35°29' E 139°39'0 0.0
2016-Aug-26 02:34N 35°29' E 139°39'0 0.0
2016-Aug-26 01:33N 35°29' E 139°39'0 0.0
2016-Aug-26 00:33N 35°29' E 139°39'7 6.8
2016-Aug-25 23:34N 35°30' E 139°47'7 7.4
2016-Aug-25 22:33N 35°38' E 139°46'1 0.6
2016-Aug-25 21:34N 35°38' E 139°45'0 0.0
2016-Aug-25 20:34N 35°38' E 139°45'0 0.0
2016-Aug-25 19:33N 35°38' E 139°45'0 0.0
2016-Aug-25 18:34N 35°38' E 139°45'0 0.0
2016-Aug-25 17:33N 35°38' E 139°45'0 0.0
2016-Aug-25 16:33N 35°38' E 139°45'0 0.0
2016-Aug-25 15:34N 35°38' E 139°45'0 0.0
2016-Aug-25 14:34N 35°38' E 139°45'0 0.0
2016-Aug-25 13:33N 35°38' E 139°45'0 0.0
2016-Aug-25 12:34N 35°38' E 139°45'0 0.0
2016-Aug-25 11:33N 35°38' E 139°45'0 0.0
2016-Aug-25 10:34N 35°38' E 139°45'0 0.0
2016-Aug-25 09:33N 35°38' E 139°45'0 0.2
2016-Aug-25 08:33N 35°38' E 139°46'0 0.2
2016-Aug-25 07:33N 35°38' E 139°45'1 1.2
2016-Aug-25 06:34N 35°39' E 139°47'1 0.6
2016-Aug-25 04:34N 35°38' E 139°45'0 0.0
2016-Aug-25 03:33N 35°38' E 139°45'0 0.0
2016-Aug-25 02:33N 35°38' E 139°45'0 0.0
2016-Aug-25 01:34N 35°38' E 139°45'0 0.0
2016-Aug-25 00:33N 35°38' E 139°45'0 0.0
2016-Aug-24 23:34N 35°38' E 139°45'1 1.3
2016-Aug-24 22:33N 35°37' E 139°46'3 3.1
2016-Aug-24 21:33N 35°35' E 139°48'2 1.9
2016-Aug-24 20:34N 35°36' E 139°46'0 0.1
2016-Aug-24 19:33N 35°36' E 139°47'3 2.6
2016-Aug-24 18:33N 35°38' E 139°45'0 0.0
2016-Aug-24 17:33N 35°38' E 139°45'0 0.0
2016-Aug-24 16:33N 35°38' E 139°45'0 0.0
2016-Aug-24 15:33N 35°38' E 139°45'0 0.0
2016-Aug-24 14:33N 35°38' E 139°45'0 0.0
2016-Aug-24 13:34N 35°38' E 139°45'0 0.0
2016-Aug-24 12:34N 35°38' E 139°45'0 0.0
2016-Aug-24 11:33N 35°38' E 139°45'0 0.0
2016-Aug-24 10:33N 35°38' E 139°45'0 0.0
2016-Aug-24 09:34N 35°38' E 139°45'0 0.0
2016-Aug-24 08:33N 35°38' E 139°45'0 0.0
2016-Aug-24 07:34N 35°38' E 139°45'0 0.0
2016-Aug-24 06:33N 35°38' E 139°45'0 0.0
2016-Aug-24 04:34N 35°38' E 139°45'1 1.5
2016-Aug-24 03:34N 35°37' E 139°46'1 1.5
2016-Aug-24 02:33N 35°38' E 139°45'0 0.0
2016-Aug-24 01:34N 35°38' E 139°45'0 0.0
2016-Aug-24 00:33N 35°38' E 139°45'0 0.0
2016-Aug-23 23:33N 35°38' E 139°45'0 0.0
2016-Aug-23 22:34N 35°38' E 139°45'0 0.0
2016-Aug-23 21:34N 35°38' E 139°45'0 0.0
2016-Aug-23 20:34N 35°38' E 139°45'0 0.0
2016-Aug-23 19:34N 35°38' E 139°45'0 0.0
2016-Aug-23 18:33N 35°38' E 139°45'0 0.0
2016-Aug-23 17:33N 35°38' E 139°45'0 0.0
2016-Aug-23 16:33N 35°38' E 139°45'0 0.0
2016-Aug-23 15:33N 35°38' E 139°45'0 0.0
2016-Aug-23 14:34N 35°38' E 139°45'0 0.0
2016-Aug-23 13:34N 35°38' E 139°45'0 0.0
2016-Aug-23 12:34N 35°38' E 139°45'0 0.0
2016-Aug-23 11:34N 35°38' E 139°45'0 0.0
2016-Aug-23 10:33N 35°38' E 139°45'0 0.3
2016-Aug-23 09:33N 35°38' E 139°46'2 1.5
2016-Aug-23 08:34N 35°37' E 139°47'2 1.9
2016-Aug-23 07:34N 35°38' E 139°45'0 0.0
2016-Aug-23 06:34N 35°38' E 139°45'0 0.0
2016-Aug-23 05:34N 35°38' E 139°45'0 0.0
2016-Aug-23 04:33N 35°38' E 139°45'0 0.0
2016-Aug-23 03:33N 35°38' E 139°45'0 0.0
2016-Aug-23 02:33N 35°38' E 139°45'0 0.0
2016-Aug-23 01:33N 35°38' E 139°45'0 0.0
2016-Aug-23 00:33N 35°38' E 139°45'0 0.0
2016-Aug-22 23:33N 35°38' E 139°45'3 3.0
2016-Aug-22 22:34N 35°35' E 139°47'1 0.6
2016-Aug-22 21:33N 35°36' E 139°47'3 2.8
2016-Aug-22 20:33N 35°38' E 139°45'0 0.0
2016-Aug-22 19:32N 35°38' E 139°45'0 0.0
2016-Aug-22 18:33N 35°38' E 139°45'0 0.0
2016-Aug-22 17:33N 35°38' E 139°45'0 0.0
2016-Aug-22 16:33N 35°38' E 139°45'0 0.0
2016-Aug-22 15:33N 35°38' E 139°45'0 0.0
2016-Aug-22 14:34N 35°38' E 139°45'0 0.0
2016-Aug-22 13:33N 35°38' E 139°45'0 0.0
2016-Aug-22 12:33N 35°38' E 139°45'0 0.0
2016-Aug-22 11:34N 35°38' E 139°45'0 0.0
2016-Aug-22 10:34N 35°38' E 139°45'0 0.0
2016-Aug-22 09:34N 35°38' E 139°45'0 0.0
2016-Aug-22 08:33N 35°38' E 139°45'0 0.0
2016-Aug-22 07:33N 35°38' E 139°45'0 0.0
2016-Aug-22 06:33N 35°38' E 139°45'0 0.0
2016-Aug-22 05:34N 35°38' E 139°45'0 0.0
2016-Aug-22 04:33N 35°38' E 139°45'0 0.0
2016-Aug-22 03:33N 35°38' E 139°45'0 0.0
2016-Aug-22 02:33N 35°38' E 139°45'0 0.0
2016-Aug-22 01:34N 35°38' E 139°45'0 0.0
2016-Aug-22 00:34N 35°38' E 139°45'0 0.0
2016-Aug-21 23:33N 35°38' E 139°45'0 0.0
2016-Aug-21 22:34N 35°38' E 139°45'0 0.0
2016-Aug-21 21:33N 35°38' E 139°45'0 0.0
2016-Aug-21 20:33N 35°38' E 139°45'0 0.0
2016-Aug-21 19:33N 35°38' E 139°45'0 0.0
2016-Aug-21 18:34N 35°38' E 139°45'0 0.0
2016-Aug-21 17:33N 35°38' E 139°45'0 0.0
2016-Aug-21 16:34N 35°38' E 139°45'0 0.0
2016-Aug-21 15:33N 35°38' E 139°45'0 0.0
2016-Aug-21 14:33N 35°38' E 139°45'0 0.0
2016-Aug-21 13:33N 35°38' E 139°45'0 0.0
2016-Aug-21 12:33N 35°38' E 139°45'0 0.0
2016-Aug-21 11:33N 35°38' E 139°45'0 0.0
2016-Aug-21 10:33N 35°38' E 139°45'0 0.0
2016-Aug-21 09:33N 35°38' E 139°45'0 0.0
2016-Aug-21 08:33N 35°38' E 139°45'0 0.0
2016-Aug-21 07:33N 35°38' E 139°45'0 0.0
2016-Aug-21 06:34N 35°38' E 139°45'0 0.0
2016-Aug-21 05:33N 35°38' E 139°45'0 0.0
2016-Aug-21 04:33N 35°38' E 139°45'0 0.0
2016-Aug-21 03:34N 35°38' E 139°45'0 0.0
2016-Aug-21 02:34N 35°38' E 139°45'0 0.0
2016-Aug-21 01:34N 35°38' E 139°45'0 0.0
2016-Aug-21 00:33N 35°38' E 139°45'0 0.0
2016-Aug-20 23:33N 35°38' E 139°45'0 0.0
2016-Aug-20 22:33N 35°38' E 139°45'0 0.0
2016-Aug-20 21:34N 35°38' E 139°45'0 0.0
2016-Aug-20 20:33N 35°38' E 139°45'0 0.0
2016-Aug-20 19:33N 35°38' E 139°45'0 0.0
2016-Aug-20 18:34N 35°38' E 139°45'0 0.1
2016-Aug-20 17:33N 35°38' E 139°46'0 0.1
2016-Aug-20 16:34N 35°38' E 139°45'0 0.0
2016-Aug-20 15:33N 35°38' E 139°45'0 0.0
2016-Aug-20 14:34N 35°38' E 139°45'0 0.0
2016-Aug-20 13:34N 35°38' E 139°45'0 0.0
2016-Aug-20 12:33N 35°38' E 139°45'0 0.0
2016-Aug-20 11:33N 35°38' E 139°45'0 0.0
2016-Aug-20 10:33N 35°38' E 139°45'0 0.0
2016-Aug-20 09:33N 35°38' E 139°45'0 0.0
2016-Aug-20 08:34N 35°38' E 139°45'0 0.0
2016-Aug-20 07:33N 35°38' E 139°45'0 0.0
2016-Aug-20 06:33N 35°38' E 139°45'0 0.0
2016-Aug-20 05:33N 35°38' E 139°45'0 0.0
2016-Aug-20 04:33N 35°38' E 139°45'0 0.0
2016-Aug-20 03:33N 35°38' E 139°45'0 0.0
2016-Aug-20 02:33N 35°38' E 139°45'0 0.0
2016-Aug-20 01:33N 35°38' E 139°45'0 0.0
2016-Aug-20 00:33N 35°38' E 139°45'0 0.0
2016-Aug-19 23:33N 35°38' E 139°45'4 3.7
2016-Aug-19 22:33N 35°35' E 139°48'4 3.7
2016-Aug-19 21:33N 35°38' E 139°45'0 0.0
2016-Aug-19 20:33N 35°38' E 139°45'0 0.0
2016-Aug-19 19:34N 35°38' E 139°45'0 0.0
2016-Aug-19 18:33N 35°38' E 139°45'0 0.0
2016-Aug-19 17:33N 35°38' E 139°45'0 0.0
2016-Aug-19 16:33N 35°38' E 139°45'0 0.0
2016-Aug-19 15:34N 35°38' E 139°45'0 0.0
2016-Aug-19 14:34N 35°38' E 139°45'0 0.0
2016-Aug-19 13:34N 35°38' E 139°45'0 0.0
2016-Aug-19 12:33N 35°38' E 139°45'0 0.0
2016-Aug-19 11:33N 35°38' E 139°45'0 0.0
2016-Aug-19 10:34N 35°38' E 139°45'0 0.0
2016-Aug-19 09:34N 35°38' E 139°45'0 0.0
2016-Aug-19 08:34N 35°38' E 139°45'0 0.0
2016-Aug-19 07:33N 35°38' E 139°45'0 0.0
2016-Aug-19 06:34N 35°38' E 139°45'0 0.0
2016-Aug-19 05:34N 35°38' E 139°45'0 0.0
2016-Aug-19 04:33N 35°38' E 139°45'0 0.0
2016-Aug-19 03:33N 35°38' E 139°45'0 0.0
2016-Aug-19 02:33N 35°38' E 139°45'0 0.0
2016-Aug-19 01:34N 35°38' E 139°45'0 0.0
2016-Aug-19 00:33N 35°38' E 139°45'0 0.0
2016-Aug-18 23:33N 35°38' E 139°45'0 0.0
2016-Aug-18 22:33N 35°38' E 139°45'0 0.0
2016-Aug-18 21:34N 35°38' E 139°45'0 0.0
2016-Aug-18 20:34N 35°38' E 139°45'0 0.0
2016-Aug-18 19:34N 35°38' E 139°45'0 0.0
2016-Aug-18 18:33N 35°38' E 139°45'0 0.0
2016-Aug-18 17:34N 35°38' E 139°45'0 0.0
2016-Aug-18 16:34N 35°38' E 139°45'0 0.0
2016-Aug-18 15:33N 35°38' E 139°45'0 0.0
2016-Aug-18 14:33N 35°38' E 139°45'1 1.1
2016-Aug-18 13:34N 35°37' E 139°46'1 1.1
2016-Aug-18 12:33N 35°38' E 139°45'2 2.2
2016-Aug-18 11:33N 35°36' E 139°46'3 3.0
2016-Aug-18 10:34N 35°34' E 139°49'3 3.4
2016-Aug-18 09:33N 35°37' E 139°46'1 1.2
2016-Aug-18 08:34N 35°36' E 139°48'2 1.6
2016-Aug-18 07:33N 35°35' E 139°49'4 4.4
2016-Aug-18 06:33N 35°38' E 139°45'0 0.0
2016-Aug-18 05:33N 35°38' E 139°45'0 0.0
2016-Aug-18 04:33N 35°38' E 139°45'0 0.0
2016-Aug-18 03:33N 35°38' E 139°45'0 0.0
2016-Aug-18 02:34N 35°38' E 139°45'0 0.0
2016-Aug-18 01:33N 35°38' E 139°45'0 0.0
2016-Aug-18 00:33N 35°38' E 139°45'0 0.0
2016-Aug-17 23:34N 35°38' E 139°45'3 2.8
2016-Aug-17 22:33N 35°36' E 139°48'2 2.2
2016-Aug-17 21:33N 35°38' E 139°46'1 0.7
2016-Aug-17 20:33N 35°38' E 139°45'0 0.0
2016-Aug-17 19:33N 35°38' E 139°45'0 0.0
2016-Aug-17 18:34N 35°38' E 139°45'0 0.0
2016-Aug-17 17:34N 35°38' E 139°45'0 0.0
2016-Aug-17 16:33N 35°38' E 139°45'0 0.0
2016-Aug-17 15:33N 35°38' E 139°45'0 0.0
2016-Aug-17 14:33N 35°38' E 139°45'0 0.0
2016-Aug-17 13:34N 35°38' E 139°45'0 0.0
2016-Aug-17 12:33N 35°38' E 139°45'0 0.0
2016-Aug-17 11:33N 35°38' E 139°45'0 0.0
2016-Aug-17 10:33N 35°38' E 139°45'3 3.0
2016-Aug-17 09:34N 35°36' E 139°47'0 0.1
2016-Aug-17 08:34N 35°35' E 139°47'2 2.1
2016-Aug-17 07:34N 35°37' E 139°46'1 1.1
2016-Aug-17 06:33N 35°38' E 139°45'0 0.0
2016-Aug-17 05:29N 35°38' E 139°45'0 0.0
2016-Aug-17 04:10N 35°38' E 139°45'0 0.0
2016-Aug-17 03:33N 35°38' E 139°45'0 0.0
2016-Aug-17 02:33N 35°38' E 139°45'0 0.0
2016-Aug-17 01:33N 35°38' E 139°45'0 0.0
2016-Aug-17 00:33N 35°38' E 139°45'2 2.1
2016-Aug-16 23:34N 35°36' E 139°46'1 1.4
2016-Aug-16 22:33N 35°35' E 139°47'5 4.8
2016-Aug-16 21:34N 35°34' E 139°53'7 7.5
2016-Aug-16 20:33N 35°38' E 139°45'0 0.0
2016-Aug-16 19:34N 35°38' E 139°45'0 0.0
2016-Aug-16 18:34N 35°38' E 139°45'0 0.0
2016-Aug-16 17:33N 35°38' E 139°45'0 0.0
2016-Aug-16 16:34N 35°38' E 139°45'0 0.0
2016-Aug-16 15:33N 35°38' E 139°45'0 0.0
2016-Aug-16 14:33N 35°38' E 139°45'0 0.0
2016-Aug-16 13:34N 35°38' E 139°45'0 0.0
2016-Aug-16 12:33N 35°38' E 139°45'0 0.0
2016-Aug-16 11:33N 35°38' E 139°45'0 0.0
2016-Aug-16 10:33N 35°38' E 139°45'0 0.0
2016-Aug-16 09:33N 35°38' E 139°45'0 0.0
2016-Aug-16 08:34N 35°38' E 139°45'0 0.0
2016-Aug-16 07:33N 35°38' E 139°45'0 0.0
2016-Aug-16 04:34N 35°38' E 139°45'  

Dump ship's entire track history